sensor_id;sensor_type;location;lat;lon;timestamp;P1;durP1;ratioP1;P2;durP2;ratioP2
56667;SDS011;42542;48.360;10.958;2023-12-14T00:02:29;5.30;;;1.70;;
56667;SDS011;42542;48.360;10.958;2023-12-14T00:05:32;6.00;;;1.80;;
56667;SDS011;42542;48.360;10.958;2023-12-14T00:08:34;5.70;;;1.80;;
56667;SDS011;42542;48.360;10.958;2023-12-14T00:11:39;5.83;;;1.83;;
56667;SDS011;42542;48.360;10.958;2023-12-14T00:14:41;6.28;;;1.92;;
56667;SDS011;42542;48.360;10.958;2023-12-14T00:17:43;6.72;;;1.95;;
56667;SDS011;42542;48.360;10.958;2023-12-14T00:20:45;6.87;;;1.70;;
56667;SDS011;42542;48.360;10.958;2023-12-14T00:23:47;6.85;;;2.08;;
56667;SDS011;42542;48.360;10.958;2023-12-14T00:26:49;5.25;;;1.58;;
56667;SDS011;42542;48.360;10.958;2023-12-14T00:29:51;5.25;;;1.60;;
56667;SDS011;42542;48.360;10.958;2023-12-14T00:32:53;5.43;;;1.50;;
56667;SDS011;42542;48.360;10.958;2023-12-14T00:35:56;5.68;;;1.70;;
56667;SDS011;42542;48.360;10.958;2023-12-14T00:38:58;5.13;;;1.58;;
56667;SDS011;42542;48.360;10.958;2023-12-14T00:42:00;6.33;;;1.60;;
56667;SDS011;42542;48.360;10.958;2023-12-14T00:45:08;5.40;;;1.33;;
56667;SDS011;42542;48.360;10.958;2023-12-14T00:48:16;4.65;;;1.38;;
56667;SDS011;42542;48.360;10.958;2023-12-14T00:51:18;4.77;;;1.37;;
56667;SDS011;42542;48.360;10.958;2023-12-14T00:54:20;4.00;;;1.17;;
56667;SDS011;42542;48.360;10.958;2023-12-14T00:57:21;7.50;;;1.55;;
56667;SDS011;42542;48.360;10.958;2023-12-14T01:00:24;4.53;;;1.40;;
56667;SDS011;42542;48.360;10.958;2023-12-14T01:03:26;5.05;;;1.48;;
56667;SDS011;42542;48.360;10.958;2023-12-14T01:06:28;5.55;;;1.50;;
56667;SDS011;42542;48.360;10.958;2023-12-14T01:09:29;4.35;;;1.27;;
56667;SDS011;42542;48.360;10.958;2023-12-14T01:12:31;4.40;;;1.37;;
56667;SDS011;42542;48.360;10.958;2023-12-14T01:15:35;5.22;;;1.50;;
56667;SDS011;42542;48.360;10.958;2023-12-14T01:18:36;5.68;;;1.67;;
56667;SDS011;42542;48.360;10.958;2023-12-14T01:21:39;6.30;;;1.90;;
56667;SDS011;42542;48.360;10.958;2023-12-14T01:24:41;6.75;;;1.70;;
56667;SDS011;42542;48.360;10.958;2023-12-14T01:27:43;6.15;;;1.67;;
56667;SDS011;42542;48.360;10.958;2023-12-14T01:30:45;5.22;;;1.60;;
56667;SDS011;42542;48.360;10.958;2023-12-14T01:33:47;5.85;;;2.10;;
56667;SDS011;42542;48.360;10.958;2023-12-14T01:36:49;6.50;;;2.30;;
56667;SDS011;42542;48.360;10.958;2023-12-14T01:39:51;6.18;;;2.40;;
56667;SDS011;42542;48.360;10.958;2023-12-14T01:42:53;8.97;;;2.50;;
56667;SDS011;42542;48.360;10.958;2023-12-14T01:45:55;7.00;;;2.40;;
56667;SDS011;42542;48.360;10.958;2023-12-14T01:48:57;8.43;;;2.75;;
56667;SDS011;42542;48.360;10.958;2023-12-14T01:51:59;6.27;;;2.17;;
56667;SDS011;42542;48.360;10.958;2023-12-14T01:55:01;7.53;;;2.20;;
56667;SDS011;42542;48.360;10.958;2023-12-14T01:58:04;7.53;;;2.45;;
56667;SDS011;42542;48.360;10.958;2023-12-14T02:01:19;6.55;;;2.25;;
56667;SDS011;42542;48.360;10.958;2023-12-14T02:04:26;7.70;;;2.65;;
56667;SDS011;42542;48.360;10.958;2023-12-14T02:07:28;7.13;;;2.40;;
56667;SDS011;42542;48.360;10.958;2023-12-14T02:10:29;7.40;;;2.33;;
56667;SDS011;42542;48.360;10.958;2023-12-14T02:13:31;8.00;;;2.27;;
56667;SDS011;42542;48.360;10.958;2023-12-14T02:16:33;6.72;;;1.88;;
56667;SDS011;42542;48.360;10.958;2023-12-14T02:19:35;6.43;;;1.92;;
56667;SDS011;42542;48.360;10.958;2023-12-14T02:22:50;7.67;;;1.93;;
56667;SDS011;42542;48.360;10.958;2023-12-14T02:25:54;5.55;;;1.77;;
56667;SDS011;42542;48.360;10.958;2023-12-14T02:28:56;5.88;;;1.95;;
56667;SDS011;42542;48.360;10.958;2023-12-14T02:31:58;6.82;;;1.80;;
56667;SDS011;42542;48.360;10.958;2023-12-14T02:35:00;6.22;;;1.83;;
56667;SDS011;42542;48.360;10.958;2023-12-14T02:38:03;5.07;;;1.50;;
56667;SDS011;42542;48.360;10.958;2023-12-14T02:41:04;5.60;;;1.75;;
56667;SDS011;42542;48.360;10.958;2023-12-14T02:44:07;4.80;;;1.40;;
56667;SDS011;42542;48.360;10.958;2023-12-14T02:47:09;4.75;;;1.40;;
56667;SDS011;42542;48.360;10.958;2023-12-14T02:50:11;4.18;;;1.17;;
56667;SDS011;42542;48.360;10.958;2023-12-14T02:53:13;5.03;;;1.30;;
56667;SDS011;42542;48.360;10.958;2023-12-14T02:56:16;4.60;;;1.40;;
56667;SDS011;42542;48.360;10.958;2023-12-14T02:59:18;3.47;;;1.00;;
56667;SDS011;42542;48.360;10.958;2023-12-14T03:02:20;5.43;;;1.40;;
56667;SDS011;42542;48.360;10.958;2023-12-14T03:05:22;4.65;;;1.25;;
56667;SDS011;42542;48.360;10.958;2023-12-14T03:08:24;4.40;;;1.20;;
56667;SDS011;42542;48.360;10.958;2023-12-14T03:11:26;4.60;;;1.17;;
56667;SDS011;42542;48.360;10.958;2023-12-14T03:14:31;4.70;;;1.23;;
56667;SDS011;42542;48.360;10.958;2023-12-14T03:17:35;4.72;;;1.40;;
56667;SDS011;42542;48.360;10.958;2023-12-14T03:20:37;5.20;;;1.67;;
56667;SDS011;42542;48.360;10.958;2023-12-14T03:23:39;5.00;;;1.43;;
56667;SDS011;42542;48.360;10.958;2023-12-14T03:26:41;5.68;;;1.63;;
56667;SDS011;42542;48.360;10.958;2023-12-14T03:29:44;5.95;;;1.58;;
56667;SDS011;42542;48.360;10.958;2023-12-14T03:32:46;5.68;;;1.67;;
56667;SDS011;42542;48.360;10.958;2023-12-14T03:35:48;5.43;;;1.50;;
56667;SDS011;42542;48.360;10.958;2023-12-14T03:38:49;6.63;;;1.65;;
56667;SDS011;42542;48.360;10.958;2023-12-14T03:41:52;4.70;;;1.50;;
56667;SDS011;42542;48.360;10.958;2023-12-14T03:44:54;5.33;;;1.40;;
56667;SDS011;42542;48.360;10.958;2023-12-14T03:47:57;4.80;;;1.45;;
56667;SDS011;42542;48.360;10.958;2023-12-14T03:51:02;5.90;;;1.73;;
56667;SDS011;42542;48.360;10.958;2023-12-14T03:54:05;6.53;;;1.90;;
56667;SDS011;42542;48.360;10.958;2023-12-14T03:57:06;5.78;;;1.83;;
56667;SDS011;42542;48.360;10.958;2023-12-14T04:00:12;5.88;;;1.85;;
56667;SDS011;42542;48.360;10.958;2023-12-14T04:03:14;6.05;;;2.00;;
56667;SDS011;42542;48.360;10.958;2023-12-14T04:06:16;6.53;;;1.90;;
56667;SDS011;42542;48.360;10.958;2023-12-14T04:09:18;8.90;;;2.40;;
56667;SDS011;42542;48.360;10.958;2023-12-14T04:12:19;6.07;;;2.08;;
56667;SDS011;42542;48.360;10.958;2023-12-14T04:15:23;6.30;;;2.03;;
56667;SDS011;42542;48.360;10.958;2023-12-14T04:18:24;6.28;;;2.03;;
56667;SDS011;42542;48.360;10.958;2023-12-14T04:21:26;10.30;;;2.35;;
56667;SDS011;42542;48.360;10.958;2023-12-14T04:24:35;5.60;;;1.70;;
56667;SDS011;42542;48.360;10.958;2023-12-14T04:27:41;6.32;;;1.70;;
56667;SDS011;42542;48.360;10.958;2023-12-14T04:30:43;6.38;;;1.83;;
56667;SDS011;42542;48.360;10.958;2023-12-14T04:33:44;5.80;;;1.80;;
56667;SDS011;42542;48.360;10.958;2023-12-14T04:36:47;5.22;;;1.52;;
56667;SDS011;42542;48.360;10.958;2023-12-14T04:39:50;6.07;;;1.90;;
56667;SDS011;42542;48.360;10.958;2023-12-14T04:42:52;7.05;;;2.30;;
56667;SDS011;42542;48.360;10.958;2023-12-14T04:45:55;4.97;;;1.77;;
56667;SDS011;42542;48.360;10.958;2023-12-14T04:48:56;6.85;;;2.00;;
56667;SDS011;42542;48.360;10.958;2023-12-14T04:51:59;5.65;;;1.80;;
56667;SDS011;42542;48.360;10.958;2023-12-14T04:55:00;6.33;;;2.00;;
56667;SDS011;42542;48.360;10.958;2023-12-14T04:58:03;5.85;;;1.73;;
56667;SDS011;42542;48.360;10.958;2023-12-14T05:01:04;5.45;;;1.58;;
56667;SDS011;42542;48.360;10.958;2023-12-14T05:04:07;4.82;;;1.60;;
56667;SDS011;42542;48.360;10.958;2023-12-14T05:07:09;4.88;;;1.50;;
56667;SDS011;42542;48.360;10.958;2023-12-14T05:10:11;5.72;;;1.63;;
56667;SDS011;42542;48.360;10.958;2023-12-14T05:13:13;5.30;;;1.50;;
56667;SDS011;42542;48.360;10.958;2023-12-14T05:16:15;4.93;;;1.30;;
56667;SDS011;42542;48.360;10.958;2023-12-14T05:19:18;6.38;;;2.15;;
56667;SDS011;42542;48.360;10.958;2023-12-14T05:22:20;6.47;;;1.90;;
56667;SDS011;42542;48.360;10.958;2023-12-14T05:25:22;6.20;;;1.73;;
56667;SDS011;42542;48.360;10.958;2023-12-14T05:28:24;6.13;;;1.85;;
56667;SDS011;42542;48.360;10.958;2023-12-14T05:31:26;7.28;;;2.28;;
56667;SDS011;42542;48.360;10.958;2023-12-14T05:34:27;6.45;;;2.28;;
56667;SDS011;42542;48.360;10.958;2023-12-14T05:37:29;7.47;;;2.40;;
56667;SDS011;42542;48.360;10.958;2023-12-14T05:40:31;6.82;;;2.03;;
56667;SDS011;42542;48.360;10.958;2023-12-14T05:43:33;6.97;;;2.60;;
56667;SDS011;42542;48.360;10.958;2023-12-14T05:46:35;9.53;;;2.60;;
56667;SDS011;42542;48.360;10.958;2023-12-14T05:49:40;7.57;;;2.65;;
56667;SDS011;42542;48.360;10.958;2023-12-14T05:52:44;8.35;;;2.67;;
56667;SDS011;42542;48.360;10.958;2023-12-14T05:55:47;9.07;;;3.00;;
56667;SDS011;42542;48.360;10.958;2023-12-14T05:58:49;6.95;;;2.05;;
56667;SDS011;42542;48.360;10.958;2023-12-14T06:01:56;7.38;;;2.20;;
56667;SDS011;42542;48.360;10.958;2023-12-14T06:05:02;6.03;;;2.00;;
56667;SDS011;42542;48.360;10.958;2023-12-14T06:08:04;6.75;;;1.70;;
56667;SDS011;42542;48.360;10.958;2023-12-14T06:11:07;7.15;;;2.08;;
56667;SDS011;42542;48.360;10.958;2023-12-14T06:14:10;5.70;;;1.80;;
56667;SDS011;42542;48.360;10.958;2023-12-14T06:17:12;6.83;;;2.37;;
56667;SDS011;42542;48.360;10.958;2023-12-14T06:20:14;6.68;;;2.17;;
56667;SDS011;42542;48.360;10.958;2023-12-14T06:23:16;8.18;;;2.78;;
56667;SDS011;42542;48.360;10.958;2023-12-14T06:26:17;12.63;;;3.70;;
56667;SDS011;42542;48.360;10.958;2023-12-14T06:29:19;12.43;;;4.57;;
56667;SDS011;42542;48.360;10.958;2023-12-14T06:32:22;14.60;;;5.20;;
56667;SDS011;42542;48.360;10.958;2023-12-14T06:35:23;10.88;;;3.83;;
56667;SDS011;42542;48.360;10.958;2023-12-14T06:38:26;10.32;;;3.33;;
56667;SDS011;42542;48.360;10.958;2023-12-14T06:41:28;10.10;;;3.20;;
56667;SDS011;42542;48.360;10.958;2023-12-14T06:44:30;10.25;;;3.83;;
56667;SDS011;42542;48.360;10.958;2023-12-14T06:47:34;8.87;;;3.53;;
56667;SDS011;42542;48.360;10.958;2023-12-14T06:50:37;12.05;;;5.30;;
56667;SDS011;42542;48.360;10.958;2023-12-14T06:53:41;13.57;;;4.70;;
56667;SDS011;42542;48.360;10.958;2023-12-14T06:56:44;8.87;;;3.30;;
56667;SDS011;42542;48.360;10.958;2023-12-14T06:59:46;11.82;;;4.00;;
56667;SDS011;42542;48.360;10.958;2023-12-14T07:02:48;9.10;;;3.28;;
56667;SDS011;42542;48.360;10.958;2023-12-14T07:05:51;9.57;;;3.53;;
56667;SDS011;42542;48.360;10.958;2023-12-14T07:08:53;12.45;;;4.28;;
56667;SDS011;42542;48.360;10.958;2023-12-14T07:11:54;12.27;;;4.13;;
56667;SDS011;42542;48.360;10.958;2023-12-14T07:14:57;8.45;;;3.00;;
56667;SDS011;42542;48.360;10.958;2023-12-14T07:17:58;8.57;;;2.73;;
56667;SDS011;42542;48.360;10.958;2023-12-14T07:21:00;8.85;;;3.03;;
56667;SDS011;42542;48.360;10.958;2023-12-14T07:24:03;7.93;;;2.90;;
56667;SDS011;42542;48.360;10.958;2023-12-14T07:27:05;7.93;;;2.90;;
56667;SDS011;42542;48.360;10.958;2023-12-14T07:30:07;8.00;;;2.83;;
56667;SDS011;42542;48.360;10.958;2023-12-14T07:33:10;7.32;;;2.42;;
56667;SDS011;42542;48.360;10.958;2023-12-14T07:36:12;8.50;;;2.78;;
56667;SDS011;42542;48.360;10.958;2023-12-14T07:39:14;8.65;;;2.85;;
56667;SDS011;42542;48.360;10.958;2023-12-14T07:42:17;9.77;;;3.05;;
56667;SDS011;42542;48.360;10.958;2023-12-14T07:45:21;8.73;;;2.92;;
56667;SDS011;42542;48.360;10.958;2023-12-14T07:48:23;7.53;;;2.57;;
56667;SDS011;42542;48.360;10.958;2023-12-14T07:51:25;7.22;;;2.78;;
56667;SDS011;42542;48.360;10.958;2023-12-14T07:54:27;8.40;;;2.80;;
56667;SDS011;42542;48.360;10.958;2023-12-14T07:57:29;8.90;;;2.70;;
56667;SDS011;42542;48.360;10.958;2023-12-14T08:00:31;8.93;;;2.97;;
56667;SDS011;42542;48.360;10.958;2023-12-14T08:03:33;9.68;;;2.65;;
56667;SDS011;42542;48.360;10.958;2023-12-14T08:06:36;9.15;;;2.50;;
56667;SDS011;42542;48.360;10.958;2023-12-14T08:09:40;9.98;;;3.08;;
56667;SDS011;42542;48.360;10.958;2023-12-14T08:12:42;8.93;;;3.00;;
56667;SDS011;42542;48.360;10.958;2023-12-14T08:15:44;10.02;;;3.03;;
56667;SDS011;42542;48.360;10.958;2023-12-14T08:18:46;12.13;;;3.20;;
56667;SDS011;42542;48.360;10.958;2023-12-14T08:21:49;8.73;;;2.70;;
56667;SDS011;42542;48.360;10.958;2023-12-14T08:24:51;9.40;;;2.90;;
56667;SDS011;42542;48.360;10.958;2023-12-14T08:27:52;10.67;;;2.90;;
56667;SDS011;42542;48.360;10.958;2023-12-14T08:30:54;8.73;;;2.75;;
56667;SDS011;42542;48.360;10.958;2023-12-14T08:33:57;8.73;;;2.83;;
56667;SDS011;42542;48.360;10.958;2023-12-14T08:37:00;9.52;;;3.30;;
56667;SDS011;42542;48.360;10.958;2023-12-14T08:40:04;11.20;;;3.78;;
56667;SDS011;42542;48.360;10.958;2023-12-14T08:43:07;10.13;;;3.58;;
56667;SDS011;42542;48.360;10.958;2023-12-14T08:46:08;11.30;;;3.97;;
56667;SDS011;42542;48.360;10.958;2023-12-14T08:49:12;10.63;;;3.00;;
56667;SDS011;42542;48.360;10.958;2023-12-14T08:52:16;11.40;;;3.45;;
56667;SDS011;42542;48.360;10.958;2023-12-14T08:55:18;9.63;;;3.60;;
56667;SDS011;42542;48.360;10.958;2023-12-14T08:58:20;11.20;;;3.87;;
56667;SDS011;42542;48.360;10.958;2023-12-14T09:01:22;11.48;;;3.78;;
56667;SDS011;42542;48.360;10.958;2023-12-14T09:04:27;12.35;;;4.15;;
56667;SDS011;42542;48.360;10.958;2023-12-14T09:07:29;15.40;;;4.55;;
56667;SDS011;42542;48.360;10.958;2023-12-14T09:10:31;10.00;;;3.97;;
56667;SDS011;42542;48.360;10.958;2023-12-14T09:13:33;14.55;;;4.63;;
56667;SDS011;42542;48.360;10.958;2023-12-14T09:16:35;11.63;;;4.35;;
56667;SDS011;42542;48.360;10.958;2023-12-14T09:19:38;14.07;;;4.27;;
56667;SDS011;42542;48.360;10.958;2023-12-14T09:22:40;11.07;;;4.00;;
56667;SDS011;42542;48.360;10.958;2023-12-14T09:25:41;11.45;;;4.07;;
56667;SDS011;42542;48.360;10.958;2023-12-14T09:28:44;10.63;;;3.63;;
56667;SDS011;42542;48.360;10.958;2023-12-14T09:31:46;11.43;;;4.03;;
56667;SDS011;42542;48.360;10.958;2023-12-14T09:34:48;11.18;;;3.90;;
56667;SDS011;42542;48.360;10.958;2023-12-14T09:37:50;12.18;;;4.07;;
56667;SDS011;42542;48.360;10.958;2023-12-14T09:40:52;10.77;;;3.67;;
56667;SDS011;42542;48.360;10.958;2023-12-14T09:43:54;10.32;;;3.67;;
56667;SDS011;42542;48.360;10.958;2023-12-14T09:46:59;10.45;;;4.03;;
56667;SDS011;42542;48.360;10.958;2023-12-14T09:50:02;11.63;;;3.87;;
56667;SDS011;42542;48.360;10.958;2023-12-14T09:53:05;10.32;;;3.78;;
56667;SDS011;42542;48.360;10.958;2023-12-14T09:56:07;11.18;;;3.95;;
56667;SDS011;42542;48.360;10.958;2023-12-14T09:59:09;11.63;;;4.53;;
56667;SDS011;42542;48.360;10.958;2023-12-14T10:02:12;9.85;;;3.58;;
56667;SDS011;42542;48.360;10.958;2023-12-14T10:05:16;10.52;;;3.40;;
56667;SDS011;42542;48.360;10.958;2023-12-14T10:08:18;10.13;;;3.50;;
56667;SDS011;42542;48.360;10.958;2023-12-14T10:11:20;9.88;;;3.40;;
56667;SDS011;42542;48.360;10.958;2023-12-14T10:14:23;8.67;;;3.40;;
56667;SDS011;42542;48.360;10.958;2023-12-14T10:17:27;10.00;;;3.20;;
56667;SDS011;42542;48.360;10.958;2023-12-14T10:20:34;9.23;;;3.20;;
56667;SDS011;42542;48.360;10.958;2023-12-14T10:23:38;9.73;;;3.30;;
56667;SDS011;42542;48.360;10.958;2023-12-14T10:26:40;9.20;;;3.42;;
56667;SDS011;42542;48.360;10.958;2023-12-14T10:29:43;9.33;;;3.10;;
56667;SDS011;42542;48.360;10.958;2023-12-14T10:32:47;8.45;;;2.92;;
56667;SDS011;42542;48.360;10.958;2023-12-14T10:35:50;9.07;;;3.30;;
56667;SDS011;42542;48.360;10.958;2023-12-14T10:38:53;8.38;;;2.90;;
56667;SDS011;42542;48.360;10.958;2023-12-14T10:41:58;11.07;;;3.47;;
56667;SDS011;42542;48.360;10.958;2023-12-14T10:45:16;9.55;;;3.42;;
56667;SDS011;42542;48.360;10.958;2023-12-14T10:48:25;10.18;;;3.15;;
56667;SDS011;42542;48.360;10.958;2023-12-14T10:51:27;9.70;;;2.93;;
56667;SDS011;42542;48.360;10.958;2023-12-14T10:54:30;8.05;;;3.00;;
56667;SDS011;42542;48.360;10.958;2023-12-14T10:57:37;8.30;;;2.80;;
56667;SDS011;42542;48.360;10.958;2023-12-14T11:00:43;9.00;;;3.07;;
56667;SDS011;42542;48.360;10.958;2023-12-14T11:03:46;8.52;;;3.05;;
56667;SDS011;42542;48.360;10.958;2023-12-14T11:06:51;9.70;;;2.95;;
56667;SDS011;42542;48.360;10.958;2023-12-14T11:09:55;8.48;;;2.80;;
56667;SDS011;42542;48.360;10.958;2023-12-14T11:13:01;8.63;;;2.83;;
56667;SDS011;42542;48.360;10.958;2023-12-14T11:16:05;8.80;;;3.20;;
56667;SDS011;42542;48.360;10.958;2023-12-14T11:19:28;7.25;;;2.60;;
56667;SDS011;42542;48.360;10.958;2023-12-14T11:22:30;6.97;;;2.47;;
56667;SDS011;42542;48.360;10.958;2023-12-14T11:25:33;7.68;;;2.22;;
56667;SDS011;42542;48.360;10.958;2023-12-14T11:28:45;7.53;;;2.42;;
56667;SDS011;42542;48.360;10.958;2023-12-14T11:31:49;8.97;;;2.83;;
56667;SDS011;42542;48.360;10.958;2023-12-14T11:34:51;6.53;;;2.38;;
56667;SDS011;42542;48.360;10.958;2023-12-14T11:37:53;9.40;;;2.70;;
56667;SDS011;42542;48.360;10.958;2023-12-14T11:40:58;8.48;;;2.90;;
56667;SDS011;42542;48.360;10.958;2023-12-14T11:44:01;7.43;;;2.75;;
56667;SDS011;42542;48.360;10.958;2023-12-14T11:47:03;9.27;;;2.88;;
56667;SDS011;42542;48.360;10.958;2023-12-14T11:50:05;8.63;;;2.47;;
56667;SDS011;42542;48.360;10.958;2023-12-14T11:53:08;6.93;;;2.27;;
56667;SDS011;42542;48.360;10.958;2023-12-14T11:56:10;7.60;;;2.53;;
56667;SDS011;42542;48.360;10.958;2023-12-14T11:59:14;6.45;;;2.40;;
56667;SDS011;42542;48.360;10.958;2023-12-14T12:02:22;8.57;;;2.50;;
56667;SDS011;42542;48.360;10.958;2023-12-14T12:06:09;6.25;;;2.30;;
56667;SDS011;42542;48.360;10.958;2023-12-14T12:08:52;7.45;;;2.75;;
56667;SDS011;42542;48.360;10.958;2023-12-14T12:11:55;7.18;;;2.53;;
56667;SDS011;42542;48.360;10.958;2023-12-14T12:14:57;8.07;;;3.05;;
56667;SDS011;42542;48.360;10.958;2023-12-14T12:17:58;6.82;;;2.72;;
56667;SDS011;42542;48.360;10.958;2023-12-14T12:21:01;9.00;;;2.85;;
56667;SDS011;42542;48.360;10.958;2023-12-14T12:24:06;7.87;;;2.67;;
56667;SDS011;42542;48.360;10.958;2023-12-14T12:27:26;8.40;;;2.83;;
56667;SDS011;42542;48.360;10.958;2023-12-14T12:30:28;8.07;;;2.97;;
56667;SDS011;42542;48.360;10.958;2023-12-14T12:33:30;14.57;;;5.57;;
56667;SDS011;42542;48.360;10.958;2023-12-14T12:36:43;9.27;;;3.45;;
56667;SDS011;42542;48.360;10.958;2023-12-14T12:39:45;8.95;;;2.97;;
56667;SDS011;42542;48.360;10.958;2023-12-14T12:42:48;9.13;;;3.42;;
56667;SDS011;42542;48.360;10.958;2023-12-14T12:45:50;11.70;;;3.17;;
56667;SDS011;42542;48.360;10.958;2023-12-14T12:48:52;7.13;;;2.67;;
56667;SDS011;42542;48.360;10.958;2023-12-14T12:51:54;7.85;;;2.40;;
56667;SDS011;42542;48.360;10.958;2023-12-14T12:54:56;7.63;;;2.70;;
56667;SDS011;42542;48.360;10.958;2023-12-14T12:57:58;7.57;;;2.63;;
56667;SDS011;42542;48.360;10.958;2023-12-14T13:01:06;9.35;;;3.22;;
56667;SDS011;42542;48.360;10.958;2023-12-14T13:04:17;7.50;;;2.80;;
56667;SDS011;42542;48.360;10.958;2023-12-14T13:07:20;7.85;;;2.63;;
56667;SDS011;42542;48.360;10.958;2023-12-14T13:10:23;9.43;;;3.60;;
56667;SDS011;42542;48.360;10.958;2023-12-14T13:13:33;7.97;;;2.70;;
56667;SDS011;42542;48.360;10.958;2023-12-14T13:16:35;10.85;;;3.20;;
56667;SDS011;42542;48.360;10.958;2023-12-14T13:19:37;8.85;;;2.97;;
56667;SDS011;42542;48.360;10.958;2023-12-14T13:22:40;7.88;;;3.10;;
56667;SDS011;42542;48.360;10.958;2023-12-14T13:25:42;7.87;;;2.97;;
56667;SDS011;42542;48.360;10.958;2023-12-14T13:28:46;8.45;;;2.78;;
56667;SDS011;42542;48.360;10.958;2023-12-14T13:31:48;8.73;;;3.25;;
56667;SDS011;42542;48.360;10.958;2023-12-14T13:34:50;9.47;;;3.13;;
56667;SDS011;42542;48.360;10.958;2023-12-14T13:37:51;13.85;;;3.67;;
56667;SDS011;42542;48.360;10.958;2023-12-14T13:40:53;10.70;;;3.17;;
56667;SDS011;42542;48.360;10.958;2023-12-14T13:43:55;9.57;;;2.92;;
56667;SDS011;42542;48.360;10.958;2023-12-14T13:46:57;7.60;;;3.10;;
56667;SDS011;42542;48.360;10.958;2023-12-14T13:49:58;9.38;;;3.15;;
56667;SDS011;42542;48.360;10.958;2023-12-14T13:53:00;8.90;;;3.08;;
56667;SDS011;42542;48.360;10.958;2023-12-14T13:56:03;9.37;;;3.20;;
56667;SDS011;42542;48.360;10.958;2023-12-14T13:59:05;9.93;;;3.10;;
56667;SDS011;42542;48.360;10.958;2023-12-14T14:02:09;8.13;;;3.20;;
56667;SDS011;42542;48.360;10.958;2023-12-14T14:05:12;9.57;;;2.93;;
56667;SDS011;42542;48.360;10.958;2023-12-14T14:08:15;7.57;;;2.80;;
56667;SDS011;42542;48.360;10.958;2023-12-14T14:11:18;7.68;;;2.85;;
56667;SDS011;42542;48.360;10.958;2023-12-14T14:14:21;7.93;;;2.45;;
56667;SDS011;42542;48.360;10.958;2023-12-14T14:17:24;9.52;;;3.10;;
56667;SDS011;42542;48.360;10.958;2023-12-14T14:20:26;7.55;;;2.53;;
56667;SDS011;42542;48.360;10.958;2023-12-14T14:23:28;8.70;;;2.85;;
56667;SDS011;42542;48.360;10.958;2023-12-14T14:26:31;8.03;;;2.70;;
56667;SDS011;42542;48.360;10.958;2023-12-14T14:29:33;6.20;;;1.83;;
56667;SDS011;42542;48.360;10.958;2023-12-14T14:32:35;5.32;;;1.50;;
56667;SDS011;42542;48.360;10.958;2023-12-14T14:35:39;4.67;;;1.40;;
56667;SDS011;42542;48.360;10.958;2023-12-14T14:38:41;6.47;;;1.52;;
56667;SDS011;42542;48.360;10.958;2023-12-14T14:41:45;5.28;;;1.60;;
56667;SDS011;42542;48.360;10.958;2023-12-14T14:44:46;7.35;;;2.40;;
56667;SDS011;42542;48.360;10.958;2023-12-14T14:47:48;7.82;;;2.28;;
56667;SDS011;42542;48.360;10.958;2023-12-14T14:50:50;6.93;;;2.20;;
56667;SDS011;42542;48.360;10.958;2023-12-14T14:53:53;10.55;;;2.08;;
56667;SDS011;42542;48.360;10.958;2023-12-14T14:56:55;7.83;;;1.90;;
56667;SDS011;42542;48.360;10.958;2023-12-14T14:59:57;6.32;;;2.17;;
56667;SDS011;42542;48.360;10.958;2023-12-14T15:02:58;6.97;;;2.40;;
56667;SDS011;42542;48.360;10.958;2023-12-14T15:06:01;5.90;;;2.10;;
56667;SDS011;42542;48.360;10.958;2023-12-14T15:09:04;7.28;;;2.38;;
56667;SDS011;42542;48.360;10.958;2023-12-14T15:12:11;7.10;;;2.55;;
56667;SDS011;42542;48.360;10.958;2023-12-14T15:15:12;7.35;;;2.58;;
56667;SDS011;42542;48.360;10.958;2023-12-14T15:18:15;8.02;;;2.97;;
56667;SDS011;42542;48.360;10.958;2023-12-14T15:21:17;8.23;;;2.70;;
56667;SDS011;42542;48.360;10.958;2023-12-14T15:24:19;7.35;;;2.47;;
56667;SDS011;42542;48.360;10.958;2023-12-14T15:27:20;14.57;;;4.70;;
56667;SDS011;42542;48.360;10.958;2023-12-14T15:30:23;13.70;;;4.90;;
56667;SDS011;42542;48.360;10.958;2023-12-14T15:33:25;10.07;;;3.63;;
56667;SDS011;42542;48.360;10.958;2023-12-14T15:36:27;8.80;;;2.90;;
56667;SDS011;42542;48.360;10.958;2023-12-14T15:39:31;8.25;;;2.70;;
56667;SDS011;42542;48.360;10.958;2023-12-14T15:42:34;7.88;;;2.90;;
56667;SDS011;42542;48.360;10.958;2023-12-14T15:45:36;8.90;;;2.80;;
56667;SDS011;42542;48.360;10.958;2023-12-14T15:48:38;9.35;;;3.00;;
56667;SDS011;42542;48.360;10.958;2023-12-14T15:51:41;12.77;;;4.57;;
56667;SDS011;42542;48.360;10.958;2023-12-14T15:54:43;11.90;;;4.43;;
56667;SDS011;42542;48.360;10.958;2023-12-14T15:57:46;10.17;;;3.30;;
56667;SDS011;42542;48.360;10.958;2023-12-14T16:00:48;9.52;;;3.53;;
56667;SDS011;42542;48.360;10.958;2023-12-14T16:03:50;10.23;;;4.00;;
56667;SDS011;42542;48.360;10.958;2023-12-14T16:06:52;10.27;;;3.53;;
56667;SDS011;42542;48.360;10.958;2023-12-14T16:09:54;9.98;;;3.75;;
56667;SDS011;42542;48.360;10.958;2023-12-14T16:12:56;11.65;;;4.03;;
56667;SDS011;42542;48.360;10.958;2023-12-14T16:15:58;9.88;;;3.33;;
56667;SDS011;42542;48.360;10.958;2023-12-14T16:18:59;29.80;;;10.10;;
56667;SDS011;42542;48.360;10.958;2023-12-14T16:22:04;13.55;;;5.35;;
56667;SDS011;42542;48.360;10.958;2023-12-14T16:25:06;10.23;;;4.03;;
56667;SDS011;42542;48.360;10.958;2023-12-14T16:28:09;9.67;;;3.73;;
56667;SDS011;42542;48.360;10.958;2023-12-14T16:31:10;12.23;;;4.22;;
56667;SDS011;42542;48.360;10.958;2023-12-14T16:34:13;12.50;;;4.30;;
56667;SDS011;42542;48.360;10.958;2023-12-14T16:37:16;11.83;;;4.27;;
56667;SDS011;42542;48.360;10.958;2023-12-14T16:40:19;15.32;;;3.85;;
56667;SDS011;42542;48.360;10.958;2023-12-14T16:43:21;11.05;;;4.10;;
56667;SDS011;42542;48.360;10.958;2023-12-14T16:46:23;12.60;;;4.72;;
56667;SDS011;42542;48.360;10.958;2023-12-14T16:49:26;12.65;;;4.38;;
56667;SDS011;42542;48.360;10.958;2023-12-14T16:52:28;10.85;;;3.60;;
56667;SDS011;42542;48.360;10.958;2023-12-14T16:55:30;8.45;;;3.47;;
56667;SDS011;42542;48.360;10.958;2023-12-14T16:58:33;14.63;;;4.37;;
56667;SDS011;42542;48.360;10.958;2023-12-14T17:01:36;9.07;;;3.67;;
56667;SDS011;42542;48.360;10.958;2023-12-14T17:04:43;9.45;;;3.88;;
56667;SDS011;42542;48.360;10.958;2023-12-14T17:07:45;12.43;;;3.90;;
56667;SDS011;42542;48.360;10.958;2023-12-14T17:10:47;12.05;;;4.07;;
56667;SDS011;42542;48.360;10.958;2023-12-14T17:13:51;9.90;;;4.05;;
56667;SDS011;42542;48.360;10.958;2023-12-14T17:16:53;12.30;;;4.13;;
56667;SDS011;42542;48.360;10.958;2023-12-14T17:19:55;10.90;;;4.28;;
56667;SDS011;42542;48.360;10.958;2023-12-14T17:23:05;13.90;;;5.07;;
56667;SDS011;42542;48.360;10.958;2023-12-14T17:26:07;11.77;;;4.43;;
56667;SDS011;42542;48.360;10.958;2023-12-14T17:29:09;13.13;;;4.60;;
56667;SDS011;42542;48.360;10.958;2023-12-14T17:32:12;11.55;;;4.20;;
56667;SDS011;42542;48.360;10.958;2023-12-14T17:35:13;11.48;;;4.50;;
56667;SDS011;42542;48.360;10.958;2023-12-14T17:38:17;12.77;;;4.50;;
56667;SDS011;42542;48.360;10.958;2023-12-14T17:41:19;11.10;;;4.32;;
56667;SDS011;42542;48.360;10.958;2023-12-14T17:44:22;11.35;;;4.40;;
56667;SDS011;42542;48.360;10.958;2023-12-14T17:47:24;12.48;;;5.57;;
56667;SDS011;42542;48.360;10.958;2023-12-14T17:50:26;17.77;;;7.22;;
56667;SDS011;42542;48.360;10.958;2023-12-14T17:53:28;13.63;;;5.75;;
56667;SDS011;42542;48.360;10.958;2023-12-14T17:56:30;14.68;;;6.22;;
56667;SDS011;42542;48.360;10.958;2023-12-14T17:59:32;15.07;;;5.87;;
56667;SDS011;42542;48.360;10.958;2023-12-14T18:02:34;14.75;;;6.03;;